sensor_id;sensor_type;location;lat;lon;timestamp;pressure;altitude;pressure_sealevel;temperature;humidity
67109;BME280;54027;50.786;7.058;2023-02-16T00:01:43;102103.94;;;2.68;90.74
67109;BME280;54027;50.786;7.058;2023-02-16T00:04:14;102111.59;;;2.68;90.84
67109;BME280;54027;50.786;7.058;2023-02-16T00:06:40;102105.47;;;2.64;90.91
67109;BME280;54027;50.786;7.058;2023-02-16T00:09:05;102108.56;;;2.57;90.29
67109;BME280;54027;50.786;7.058;2023-02-16T00:11:31;102106.66;;;2.53;90.72
67109;BME280;54027;50.786;7.058;2023-02-16T00:14:16;102113.13;;;2.45;90.36
67109;BME280;54027;50.786;7.058;2023-02-16T00:16:41;102111.34;;;2.44;90.60
67109;BME280;54027;50.786;7.058;2023-02-16T00:19:15;102105.19;;;2.39;91.10
67109;BME280;54027;50.786;7.058;2023-02-16T00:21:40;102104.91;;;2.33;90.98
67109;BME280;54027;50.786;7.058;2023-02-16T00:24:05;102104.53;;;2.25;91.28
67109;BME280;54027;50.786;7.058;2023-02-16T00:26:31;102108.53;;;2.20;91.69
67109;BME280;54027;50.786;7.058;2023-02-16T00:28:58;102108.63;;;2.22;92.01
67109;BME280;54027;50.786;7.058;2023-02-16T00:31:23;102108.34;;;2.16;91.95
67109;BME280;54027;50.786;7.058;2023-02-16T00:33:51;102104.63;;;2.09;91.98
67109;BME280;54027;50.786;7.058;2023-02-16T00:36:17;102097.47;;;2.02;92.31
67109;BME280;54027;50.786;7.058;2023-02-16T00:38:42;102102.53;;;2.01;92.11
67109;BME280;54027;50.786;7.058;2023-02-16T00:41:14;102100.03;;;2.02;92.83
67109;BME280;54027;50.786;7.058;2023-02-16T00:44:00;102090.56;;;2.00;92.73
67109;BME280;54027;50.786;7.058;2023-02-16T00:46:25;102094.50;;;1.93;92.93
67109;BME280;54027;50.786;7.058;2023-02-16T00:48:51;102100.56;;;1.95;93.29
67109;BME280;54027;50.786;7.058;2023-02-16T00:51:16;102094.44;;;1.92;92.78
67109;BME280;54027;50.786;7.058;2023-02-16T00:53:41;102100.28;;;1.89;93.37
67109;BME280;54027;50.786;7.058;2023-02-16T00:56:08;102100.91;;;1.85;93.19
67109;BME280;54027;50.786;7.058;2023-02-16T00:58:35;102101.94;;;1.89;93.34
67109;BME280;54027;50.786;7.058;2023-02-16T01:01:02;102092.47;;;1.86;93.18
67109;BME280;54027;50.786;7.058;2023-02-16T01:03:30;102092.47;;;1.86;93.56
67109;BME280;54027;50.786;7.058;2023-02-16T01:05:55;102090.78;;;1.86;93.47
67109;BME280;54027;50.786;7.058;2023-02-16T01:08:39;102095.88;;;1.86;93.23
67109;BME280;54027;50.786;7.058;2023-02-16T01:11:23;102088.91;;;1.82;93.21
67109;BME280;54027;50.786;7.058;2023-02-16T01:13:49;102096.59;;;1.84;93.71
67109;BME280;54027;50.786;7.058;2023-02-16T01:16:17;102087.16;;;1.81;93.49
67109;BME280;54027;50.786;7.058;2023-02-16T01:18:43;102082.56;;;1.74;93.49
67109;BME280;54027;50.786;7.058;2023-02-16T01:21:08;102081.69;;;1.74;93.74
67109;BME280;54027;50.786;7.058;2023-02-16T01:23:34;102079.88;;;1.71;93.78
67109;BME280;54027;50.786;7.058;2023-02-16T01:26:00;102081.31;;;1.66;93.66
67109;BME280;54027;50.786;7.058;2023-02-16T01:28:25;102075.47;;;1.69;93.84
67109;BME280;54027;50.786;7.058;2023-02-16T01:30:51;102078.56;;;1.62;93.92
67109;BME280;54027;50.786;7.058;2023-02-16T01:33:17;102084.13;;;1.55;93.84
67109;BME280;54027;50.786;7.058;2023-02-16T01:35:42;102083.25;;;1.54;94.17
67109;BME280;54027;50.786;7.058;2023-02-16T01:38:15;102078.84;;;1.50;94.26
67109;BME280;54027;50.786;7.058;2023-02-16T01:40:43;102067.47;;;1.44;94.41
67109;BME280;54027;50.786;7.058;2023-02-16T01:46:15;102075.75;;;1.40;94.23
67109;BME280;54027;50.786;7.058;2023-02-16T01:48:38;102070.34;;;1.34;94.22
67109;BME280;54027;50.786;7.058;2023-02-16T01:51:05;102067.44;;;1.26;94.19
67109;BME280;54027;50.786;7.058;2023-02-16T01:56:03;102057.00;;;1.21;94.68
67109;BME280;54027;50.786;7.058;2023-02-16T01:58:39;102058.19;;;1.28;95.21
67109;BME280;54027;50.786;7.058;2023-02-16T02:03:41;102070.88;;;1.26;95.34
67109;BME280;54027;50.786;7.058;2023-02-16T02:06:26;102067.50;;;1.27;95.52
67109;BME280;54027;50.786;7.058;2023-02-16T02:08:55;102066.41;;;1.22;95.26
67109;BME280;54027;50.786;7.058;2023-02-16T02:11:25;102066.09;;;1.16;95.36
67109;BME280;54027;50.786;7.058;2023-02-16T02:13:59;102061.63;;;1.12;95.67
67109;BME280;54027;50.786;7.058;2023-02-16T02:16:27;102058.47;;;1.16;95.59
67109;BME280;54027;50.786;7.058;2023-02-16T02:18:53;102059.34;;;1.17;95.67
67109;BME280;54027;50.786;7.058;2023-02-16T02:32:15;102049.88;;;1.14;95.83
67109;BME280;54027;50.786;7.058;2023-02-16T02:37:15;102053.16;;;1.12;95.56
67109;BME280;54027;50.786;7.058;2023-02-16T02:39:52;102053.16;;;1.12;95.75
67109;BME280;54027;50.786;7.058;2023-02-16T02:42:30;102052.28;;;1.11;95.97
67109;BME280;54027;50.786;7.058;2023-02-16T02:45:06;102054.72;;;1.10;95.75
67109;BME280;54027;50.786;7.058;2023-02-16T02:47:45;102054.72;;;1.10;96.05
67109;BME280;54027;50.786;7.058;2023-02-16T02:52:48;102044.38;;;1.07;96.08
67109;BME280;54027;50.786;7.058;2023-02-16T02:55:14;102053.63;;;1.05;95.99
67109;BME280;54027;50.786;7.058;2023-02-16T02:57:57;102049.31;;;1.04;95.78
67109;BME280;54027;50.786;7.058;2023-02-16T03:00:43;102045.06;;;1.03;96.30
67109;BME280;54027;50.786;7.058;2023-02-16T03:03:13;102042.25;;;0.98;95.96
67109;BME280;54027;50.786;7.058;2023-02-16T03:05:42;102040.44;;;0.96;96.09
67109;BME280;54027;50.786;7.058;2023-02-16T03:08:09;102046.09;;;0.90;95.69
67109;BME280;54027;50.786;7.058;2023-02-16T03:10:46;102040.69;;;0.84;95.91
67109;BME280;54027;50.786;7.058;2023-02-16T03:13:33;102035.66;;;0.86;96.24
67109;BME280;54027;50.786;7.058;2023-02-16T03:16:00;102027.72;;;0.80;96.14
67109;BME280;54027;50.786;7.058;2023-02-16T03:18:27;102038.47;;;0.74;95.97
67109;BME280;54027;50.786;7.058;2023-02-16T03:21:13;102035.69;;;0.69;96.21
67109;BME280;54027;50.786;7.058;2023-02-16T03:23:57;102024.56;;;0.67;96.31
67109;BME280;54027;50.786;7.058;2023-02-16T03:26:42;102036.63;;;0.71;96.77
67109;BME280;54027;50.786;7.058;2023-02-16T03:29:26;102031.41;;;0.68;96.40
67109;BME280;54027;50.786;7.058;2023-02-16T03:31:52;102026.16;;;0.65;96.52
67109;BME280;54027;50.786;7.058;2023-02-16T03:34:19;102020.91;;;0.62;96.79
67109;BME280;54027;50.786;7.058;2023-02-16T03:36:46;102014.00;;;0.60;96.33
67109;BME280;54027;50.786;7.058;2023-02-16T03:39:12;102021.63;;;0.60;96.87
67109;BME280;54027;50.786;7.058;2023-02-16T03:41:56;102009.00;;;0.61;96.83
67109;BME280;54027;50.786;7.058;2023-02-16T03:44:21;102018.34;;;0.62;97.22
67109;BME280;54027;50.786;7.058;2023-02-16T03:46:47;102010.09;;;0.66;97.23
67109;BME280;54027;50.786;7.058;2023-02-16T03:49:13;102014.88;;;0.77;97.75
67109;BME280;54027;50.786;7.058;2023-02-16T03:51:38;102025.56;;;0.87;97.89
67109;BME280;54027;50.786;7.058;2023-02-16T03:54:04;102029.72;;;0.85;97.95
67109;BME280;54027;50.786;7.058;2023-02-16T03:56:29;102031.25;;;0.82;97.87
67109;BME280;54027;50.786;7.058;2023-02-16T03:58:54;102021.84;;;0.81;97.96
67109;BME280;54027;50.786;7.058;2023-02-16T04:01:19;102022.09;;;0.85;98.07
67109;BME280;54027;50.786;7.058;2023-02-16T04:03:45;102028.03;;;0.86;98.03
67109;BME280;54027;50.786;7.058;2023-02-16T04:06:10;102023.81;;;0.86;97.87
67109;BME280;54027;50.786;7.058;2023-02-16T04:08:35;102024.53;;;0.84;97.76
67109;BME280;54027;50.786;7.058;2023-02-16T04:11:00;102030.50;;;0.84;98.15
67109;BME280;54027;50.786;7.058;2023-02-16T04:13:46;102018.56;;;0.83;98.27
67109;BME280;54027;50.786;7.058;2023-02-16T04:16:11;102013.63;;;0.86;97.98
67109;BME280;54027;50.786;7.058;2023-02-16T04:18:36;102005.38;;;0.90;98.37
67109;BME280;54027;50.786;7.058;2023-02-16T04:21:01;102013.31;;;0.96;98.48
67109;BME280;54027;50.786;7.058;2023-02-16T04:23:27;102018.63;;;1.01;98.60
67109;BME280;54027;50.786;7.058;2023-02-16T04:25:52;102018.72;;;1.02;98.35
67109;BME280;54027;50.786;7.058;2023-02-16T04:28:17;102022.94;;;1.02;98.50
67109;BME280;54027;50.786;7.058;2023-02-16T04:30:42;102021.16;;;1.01;98.43
67109;BME280;54027;50.786;7.058;2023-02-16T04:33:08;102024.09;;;1.08;98.35
67109;BME280;54027;50.786;7.058;2023-02-16T04:35:33;102026.41;;;1.04;97.89
67109;BME280;54027;50.786;7.058;2023-02-16T04:37:58;102021.41;;;1.05;97.91
67109;BME280;54027;50.786;7.058;2023-02-16T04:40:23;102025.63;;;1.05;97.50
67109;BME280;54027;50.786;7.058;2023-02-16T04:42:49;102027.22;;;1.03;97.65
67109;BME280;54027;50.786;7.058;2023-02-16T04:45:14;102025.16;;;0.96;97.49
67109;BME280;54027;50.786;7.058;2023-02-16T04:47:39;102022.25;;;0.88;97.46
67109;BME280;54027;50.786;7.058;2023-02-16T04:50:05;102017.00;;;0.85;97.82
67109;BME280;54027;50.786;7.058;2023-02-16T04:52:30;102011.91;;;0.85;97.75
67109;BME280;54027;50.786;7.058;2023-02-16T04:54:56;102017.22;;;0.90;97.63
67109;BME280;54027;50.786;7.058;2023-02-16T04:57:21;102019.69;;;0.88;97.54
67109;BME280;54027;50.786;7.058;2023-02-16T04:59:48;102021.44;;;0.89;97.37
67109;BME280;54027;50.786;7.058;2023-02-16T05:02:13;102032.97;;;0.83;97.44
67109;BME280;54027;50.786;7.058;2023-02-16T05:04:38;102024.16;;;0.76;97.53
67109;BME280;54027;50.786;7.058;2023-02-16T05:07:04;102028.22;;;0.72;97.79
67109;BME280;54027;50.786;7.058;2023-02-16T05:09:29;102015.00;;;0.80;97.45
67109;BME280;54027;50.786;7.058;2023-02-16T05:11:54;102019.72;;;0.72;97.34
67109;BME280;54027;50.786;7.058;2023-02-16T05:14:38;102012.53;;;0.65;97.35
67109;BME280;54027;50.786;7.058;2023-02-16T05:17:07;102012.31;;;0.60;97.45
67109;BME280;54027;50.786;7.058;2023-02-16T05:19:32;102016.94;;;0.67;97.78
67109;BME280;54027;50.786;7.058;2023-02-16T05:21:57;102015.25;;;0.68;97.90
67109;BME280;54027;50.786;7.058;2023-02-16T05:24:23;102012.38;;;0.62;97.91
67109;BME280;54027;50.786;7.058;2023-02-16T05:26:48;102018.03;;;0.56;97.79
67109;BME280;54027;50.786;7.058;2023-02-16T05:29:13;102017.81;;;0.52;97.72
67109;BME280;54027;50.786;7.058;2023-02-16T05:31:38;102021.16;;;0.67;98.48
67109;BME280;54027;50.786;7.058;2023-02-16T05:34:04;102017.63;;;0.65;98.24
67109;BME280;54027;50.786;7.058;2023-02-16T05:36:29;102017.00;;;0.69;98.76
67109;BME280;54027;50.786;7.058;2023-02-16T05:38:54;102016.53;;;0.76;98.82
67109;BME280;54027;50.786;7.058;2023-02-16T05:41:20;102018.81;;;0.88;99.21
67109;BME280;54027;50.786;7.058;2023-02-16T05:43:51;102021.84;;;0.97;99.14
67109;BME280;54027;50.786;7.058;2023-02-16T05:46:18;102018.63;;;1.01;99.42
67109;BME280;54027;50.786;7.058;2023-02-16T05:48:44;102014.56;;;1.04;99.23
67109;BME280;54027;50.786;7.058;2023-02-16T05:51:09;102013.69;;;1.04;98.91
67109;BME280;54027;50.786;7.058;2023-02-16T05:53:34;102013.53;;;1.01;99.05
67109;BME280;54027;50.786;7.058;2023-02-16T05:55:59;102025.41;;;1.00;98.99
67109;BME280;54027;50.786;7.058;2023-02-16T05:58:25;102023.56;;;0.98;98.90
67109;BME280;54027;50.786;7.058;2023-02-16T06:00:50;102028.59;;;0.96;98.69
67109;BME280;54027;50.786;7.058;2023-02-16T06:03:15;102021.97;;;1.00;99.01
67109;BME280;54027;50.786;7.058;2023-02-16T06:05:40;102026.81;;;0.95;98.66
67109;BME280;54027;50.786;7.058;2023-02-16T06:08:06;102021.09;;;0.99;98.88
67109;BME280;54027;50.786;7.058;2023-02-16T06:10:32;102013.19;;;1.11;98.89
67109;BME280;54027;50.786;7.058;2023-02-16T06:12:57;102018.94;;;1.07;98.66
67109;BME280;54027;50.786;7.058;2023-02-16T06:15:22;102017.25;;;1.07;98.54
67109;BME280;54027;50.786;7.058;2023-02-16T06:17:47;102025.19;;;1.13;98.60
67109;BME280;54027;50.786;7.058;2023-02-16T06:20:13;102023.28;;;1.09;98.55
67109;BME280;54027;50.786;7.058;2023-02-16T06:22:38;102028.22;;;1.06;98.36
67109;BME280;54027;50.786;7.058;2023-02-16T06:25:03;102030.09;;;1.09;98.51
67109;BME280;54027;50.786;7.058;2023-02-16T06:27:29;102027.59;;;1.10;98.33
67109;BME280;54027;50.786;7.058;2023-02-16T06:29:55;102031.66;;;1.07;98.21
67109;BME280;54027;50.786;7.058;2023-02-16T06:32:20;102030.66;;;1.03;98.17
67109;BME280;54027;50.786;7.058;2023-02-16T06:34:45;102029.84;;;1.04;98.41
67109;BME280;54027;50.786;7.058;2023-02-16T06:37:11;102026.66;;;1.08;98.20
67109;BME280;54027;50.786;7.058;2023-02-16T06:39:36;102018.34;;;1.12;98.52
67109;BME280;54027;50.786;7.058;2023-02-16T06:42:01;102014.44;;;1.19;98.43
67109;BME280;54027;50.786;7.058;2023-02-16T06:44:26;102018.75;;;1.20;98.54
67109;BME280;54027;50.786;7.058;2023-02-16T06:46:52;102025.06;;;1.28;98.47
67109;BME280;54027;50.786;7.058;2023-02-16T06:49:18;102021.31;;;1.38;98.35
67109;BME280;54027;50.786;7.058;2023-02-16T06:51:44;102022.78;;;1.50;98.21
67109;BME280;54027;50.786;7.058;2023-02-16T06:54:09;102021.38;;;1.57;98.25
67109;BME280;54027;50.786;7.058;2023-02-16T06:56:35;102028.66;;;1.67;98.33
67109;BME280;54027;50.786;7.058;2023-02-16T06:59:00;102029.84;;;1.73;97.62
67109;BME280;54027;50.786;7.058;2023-02-16T07:01:26;102029.44;;;1.83;97.46
67109;BME280;54027;50.786;7.058;2023-02-16T07:03:52;102029.03;;;1.92;97.23
67109;BME280;54027;50.786;7.058;2023-02-16T07:06:18;102027.69;;;2.00;96.37
67109;BME280;54027;50.786;7.058;2023-02-16T07:08:43;102024.69;;;2.09;96.45
67109;BME280;54027;50.786;7.058;2023-02-16T07:11:09;102030.34;;;2.21;96.66
67109;BME280;54027;50.786;7.058;2023-02-16T07:13:34;102029.09;;;2.30;95.34
67109;BME280;54027;50.786;7.058;2023-02-16T07:16:01;102029.66;;;2.42;95.25
67109;BME280;54027;50.786;7.058;2023-02-16T07:18:26;102031.00;;;2.54;94.19
67109;BME280;54027;50.786;7.058;2023-02-16T07:20:51;102040.78;;;2.64;93.85
67109;BME280;54027;50.786;7.058;2023-02-16T07:23:17;102038.84;;;2.77;93.33
67109;BME280;54027;50.786;7.058;2023-02-16T07:25:42;102036.81;;;2.89;92.38
67109;BME280;54027;50.786;7.058;2023-02-16T07:28:07;102042.50;;;3.03;91.19
67109;BME280;54027;50.786;7.058;2023-02-16T07:30:32;102035.34;;;3.15;91.58
67109;BME280;54027;50.786;7.058;2023-02-16T07:32:58;102034.19;;;3.28;91.04
67109;BME280;54027;50.786;7.058;2023-02-16T07:35:24;102036.50;;;3.42;90.02
67109;BME280;54027;50.786;7.058;2023-02-16T07:37:49;102033.63;;;3.56;89.74
67109;BME280;54027;50.786;7.058;2023-02-16T07:40:14;102031.59;;;3.69;89.87
67109;BME280;54027;50.786;7.058;2023-02-16T07:42:39;102043.06;;;3.79;89.69
67109;BME280;54027;50.786;7.058;2023-02-16T07:45:05;102040.91;;;3.89;89.02
67109;BME280;54027;50.786;7.058;2023-02-16T07:47:30;102034.47;;;3.99;87.79
67109;BME280;54027;50.786;7.058;2023-02-16T07:49:55;102035.63;;;4.07;88.17
67109;BME280;54027;50.786;7.058;2023-02-16T07:52:20;102033.28;;;4.12;87.07
67109;BME280;54027;50.786;7.058;2023-02-16T07:54:46;102030.75;;;4.13;86.86
67109;BME280;54027;50.786;7.058;2023-02-16T07:57:11;102034.34;;;4.18;87.44
67109;BME280;54027;50.786;7.058;2023-02-16T07:59:36;102027.63;;;4.20;87.06
67109;BME280;54027;50.786;7.058;2023-02-16T08:02:02;102019.19;;;4.23;86.44
67109;BME280;54027;50.786;7.058;2023-02-16T08:04:27;102029.56;;;4.27;85.68
67109;BME280;54027;50.786;7.058;2023-02-16T08:06:52;102029.81;;;4.33;85.21
67109;BME280;54027;50.786;7.058;2023-02-16T08:09:17;102029.09;;;4.37;85.71
67109;BME280;54027;50.786;7.058;2023-02-16T08:11:43;102026.56;;;4.37;85.08
67109;BME280;54027;50.786;7.058;2023-02-16T08:14:08;102029.34;;;4.43;84.98
67109;BME280;54027;50.786;7.058;2023-02-16T08:16:34;102029.56;;;4.49;84.20
67109;BME280;54027;50.786;7.058;2023-02-16T08:19:00;102029.78;;;4.55;83.88
67109;BME280;54027;50.786;7.058;2023-02-16T08:21:29;102025.00;;;4.64;84.12
67109;BME280;54027;50.786;7.058;2023-02-16T08:23:56;102013.22;;;4.70;83.47
67109;BME280;54027;50.786;7.058;2023-02-16T08:26:23;102013.38;;;4.74;83.49
67109;BME280;54027;50.786;7.058;2023-02-16T08:28:49;102025.41;;;4.77;83.14
67109;BME280;54027;50.786;7.058;2023-02-16T08:31:15;102021.28;;;4.80;83.57
67109;BME280;54027;50.786;7.058;2023-02-16T08:33:41;102018.63;;;4.77;82.78
67109;BME280;54027;50.786;7.058;2023-02-16T08:36:06;102011.66;;;4.75;83.08
67109;BME280;54027;50.786;7.058;2023-02-16T08:38:35;102017.63;;;4.74;82.71
67109;BME280;54027;50.786;7.058;2023-02-16T08:41:01;102020.09;;;4.71;83.86
67109;BME280;54027;50.786;7.058;2023-02-16T08:43:26;102025.22;;;4.71;84.10
67109;BME280;54027;50.786;7.058;2023-02-16T08:45:52;102025.13;;;4.69;84.15
67109;BME280;54027;50.786;7.058;2023-02-16T08:48:17;102017.56;;;4.72;84.28
67109;BME280;54027;50.786;7.058;2023-02-16T08:50:43;102017.75;;;4.77;83.85
67109;BME280;54027;50.786;7.058;2023-02-16T08:53:11;102015.44;;;4.84;84.21
67109;BME280;54027;50.786;7.058;2023-02-16T08:55:36;102013.97;;;4.91;83.41
67109;BME280;54027;50.786;7.058;2023-02-16T08:58:03;102015.09;;;4.99;82.89
67109;BME280;54027;50.786;7.058;2023-02-16T09:00:28;102020.59;;;5.09;82.44
67109;BME280;54027;50.786;7.058;2023-02-16T09:02:59;102011.41;;;5.16;82.89
67109;BME280;54027;50.786;7.058;2023-02-16T09:05:25;102006.53;;;5.23;82.12
67109;BME280;54027;50.786;7.058;2023-02-16T09:07:52;102001.63;;;5.31;81.99
67109;BME280;54027;50.786;7.058;2023-02-16T09:10:17;102007.03;;;5.39;81.72
67109;BME280;54027;50.786;7.058;2023-02-16T09:12:43;102004.91;;;5.52;81.71
67109;BME280;54027;50.786;7.058;2023-02-16T09:15:12;102008.00;;;5.69;81.21
67109;BME280;54027;50.786;7.058;2023-02-16T09:17:38;102008.28;;;5.78;81.32
67109;BME280;54027;50.786;7.058;2023-02-16T09:20:03;102011.09;;;5.86;80.95
67109;BME280;54027;50.786;7.058;2023-02-16T09:22:29;102013.81;;;5.90;80.59
67109;BME280;54027;50.786;7.058;2023-02-16T09:24:54;102014.81;;;5.95;80.99
67109;BME280;54027;50.786;7.058;2023-02-16T09:27:19;102017.38;;;5.95;81.07
67109;BME280;54027;50.786;7.058;2023-02-16T09:29:45;102011.28;;;5.92;80.73
67109;BME280;54027;50.786;7.058;2023-02-16T09:32:10;102021.34;;;5.86;81.15
67109;BME280;54027;50.786;7.058;2023-02-16T09:34:36;102014.38;;;5.82;81.39
67109;BME280;54027;50.786;7.058;2023-02-16T09:37:01;102011.88;;;5.83;81.26
67109;BME280;54027;50.786;7.058;2023-02-16T09:39:27;102017.22;;;5.91;81.09
67109;BME280;54027;50.786;7.058;2023-02-16T09:42:01;102011.72;;;6.07;80.73
67109;BME280;54027;50.786;7.058;2023-02-16T09:44:42;102003.63;;;6.23;80.54
67109;BME280;54027;50.786;7.058;2023-02-16T09:47:16;102004.31;;;6.46;80.19
67109;BME280;54027;50.786;7.058;2023-02-16T09:49:43;102016.00;;;6.66;79.65
67109;BME280;54027;50.786;7.058;2023-02-16T09:55:11;102005.50;;;7.21;77.88
67109;BME280;54027;50.786;7.058;2023-02-16T10:05:44;101977.72;;;8.20;73.67
67109;BME280;54027;50.786;7.058;2023-02-16T10:08:23;101984.28;;;8.46;73.62
67109;BME280;54027;50.786;7.058;2023-02-16T10:13:24;101964.88;;;9.12;72.39
67109;BME280;54027;50.786;7.058;2023-02-16T10:15:52;101958.56;;;9.46;71.61
67109;BME280;54027;50.786;7.058;2023-02-16T10:18:27;101937.25;;;9.59;69.53
67109;BME280;54027;50.786;7.058;2023-02-16T10:20:54;101927.91;;;9.67;69.22
67109;BME280;54027;50.786;7.058;2023-02-16T10:28:57;101921.44;;;9.98;68.56
67109;BME280;54027;50.786;7.058;2023-02-16T10:36:39;101912.81;;;9.96;67.88
67109;BME280;54027;50.786;7.058;2023-02-16T10:41:39;101915.38;;;9.96;67.80
67109;BME280;54027;50.786;7.058;2023-02-16T10:46:35;101903.41;;;10.03;67.53
67109;BME280;54027;50.786;7.058;2023-02-16T10:49:02;101907.78;;;10.08;67.05
67109;BME280;54027;50.786;7.058;2023-02-16T10:51:30;101888.06;;;10.16;66.35
67109;BME280;54027;50.786;7.058;2023-02-16T10:54:00;101890.72;;;10.24;66.77
67109;BME280;54027;50.786;7.058;2023-02-16T10:59:00;101882.38;;;10.49;65.94
67109;BME280;54027;50.786;7.058;2023-02-16T11:03:57;101874.78;;;10.64;66.00
67109;BME280;54027;50.786;7.058;2023-02-16T11:06:23;101874.88;;;10.76;65.53
67109;BME280;54027;50.786;7.058;2023-02-16T11:08:56;101862.06;;;10.90;65.02
67109;BME280;54027;50.786;7.058;2023-02-16T11:11:24;101843.28;;;11.15;64.43
67109;BME280;54027;50.786;7.058;2023-02-16T11:13:56;101843.34;;;11.29;64.45
67109;BME280;54027;50.786;7.058;2023-02-16T11:16:22;101827.97;;;11.52;63.78
67109;BME280;54027;50.786;7.058;2023-02-16T11:19:02;101806.44;;;11.60;63.06
67109;BME280;54027;50.786;7.058;2023-02-16T11:24:08;101803.06;;;11.82;62.61
67109;BME280;54027;50.786;7.058;2023-02-16T11:26:34;101803.06;;;11.84;62.44
67109;BME280;54027;50.786;7.058;2023-02-16T11:29:33;101813.38;;;11.73;62.89
67109;BME280;54027;50.786;7.058;2023-02-16T11:31:51;101826.28;;;11.60;63.04
67109;BME280;54027;50.786;7.058;2023-02-16T11:37:02;101852.97;;;11.45;64.71
67109;BME280;54027;50.786;7.058;2023-02-16T11:39:28;101849.47;;;11.42;65.00
67109;BME280;54027;50.786;7.058;2023-02-16T11:41:59;101859.88;;;11.48;64.91
67109;BME280;54027;50.786;7.058;2023-02-16T11:44:26;101855.63;;;11.57;64.65
67109;BME280;54027;50.786;7.058;2023-02-16T11:46:53;101847.06;;;11.72;64.64
67109;BME280;54027;50.786;7.058;2023-02-16T11:49:30;101834.16;;;11.90;64.59
67109;BME280;54027;50.786;7.058;2023-02-16T11:51:56;101835.94;;;12.02;64.62
67109;BME280;54027;50.786;7.058;2023-02-16T11:54:22;101814.38;;;12.10;64.23
67109;BME280;54027;50.786;7.058;2023-02-16T11:59:45;101821.28;;;12.20;64.68
67109;BME280;54027;50.786;7.058;2023-02-16T12:12:16;101829.84;;;11.86;65.63
67109;BME280;54027;50.786;7.058;2023-02-16T12:25:33;101861.72;;;11.70;67.87
67109;BME280;54027;50.786;7.058;2023-02-16T12:45:18;101847.03;;;11.66;67.58
67109;BME280;54027;50.786;7.058;2023-02-16T12:47:54;101860.84;;;11.68;67.96
67109;BME280;54027;50.786;7.058;2023-02-16T12:50:25;101859.13;;;11.68;68.11
67109;BME280;54027;50.786;7.058;2023-02-16T12:55:27;101841.00;;;11.68;67.64
67109;BME280;54027;50.786;7.058;2023-02-16T12:57:58;101834.97;;;11.74;67.19
67109;BME280;54027;50.786;7.058;2023-02-16T13:00:48;101841.03;;;11.79;67.54
67109;BME280;54027;50.786;7.058;2023-02-16T13:05:43;101819.47;;;11.83;66.97
67109;BME280;54027;50.786;7.058;2023-02-16T13:08:14;101828.09;;;11.83;67.40
67109;BME280;54027;50.786;7.058;2023-02-16T13:10:51;101823.81;;;11.87;67.25
67109;BME280;54027;50.786;7.058;2023-02-16T13:13:20;101827.22;;;11.84;67.30
67109;BME280;54027;50.786;7.058;2023-02-16T13:15:51;101830.72;;;11.86;67.59
67109;BME280;54027;50.786;7.058;2023-02-16T13:20:49;101812.53;;;11.79;67.54
67109;BME280;54027;50.786;7.058;2023-02-16T13:43:53;101836.63;;;11.54;70.47
67109;BME280;54027;50.786;7.058;2023-02-16T13:48:48;101865.97;;;11.51;72.67
67109;BME280;54027;50.786;7.058;2023-02-16T13:51:21;101861.59;;;11.49;72.93
67109;BME280;54027;50.786;7.058;2023-02-16T13:53:49;101855.56;;;11.47;73.67
67109;BME280;54027;50.786;7.058;2023-02-16T13:58:55;101846.06;;;11.46;74.31
67109;BME280;54027;50.786;7.058;2023-02-16T14:03:56;101818.47;;;11.48;73.59
67109;BME280;54027;50.786;7.058;2023-02-16T14:12:18;101808.13;;;11.52;73.36
67109;BME280;54027;50.786;7.058;2023-02-16T14:22:48;101786.59;;;11.62;72.72
67109;BME280;54027;50.786;7.058;2023-02-16T14:25:35;101770.19;;;11.62;72.66
67109;BME280;54027;50.786;7.058;2023-02-16T14:30:45;101772.75;;;11.59;72.50
67109;BME280;54027;50.786;7.058;2023-02-16T14:38:20;101759.84;;;11.65;72.17
67109;BME280;54027;50.786;7.058;2023-02-16T14:43:28;101749.50;;;11.81;71.46
67109;BME280;54027;50.786;7.058;2023-02-16T14:54:16;101740.06;;;11.96;70.44
67109;BME280;54027;50.786;7.058;2023-02-16T15:01:21;101727.97;;;11.98;70.67
67109;BME280;54027;50.786;7.058;2023-02-16T15:03:50;101724.50;;;11.99;70.33
67109;BME280;54027;50.786;7.058;2023-02-16T15:06:18;101719.34;;;12.02;69.80
67109;BME280;54027;50.786;7.058;2023-02-16T15:08:44;101728.81;;;12.03;69.73
67109;BME280;54027;50.786;7.058;2023-02-16T15:11:15;101735.72;;;11.96;70.15
67109;BME280;54027;50.786;7.058;2023-02-16T15:13:43;101738.31;;;11.85;70.47
67109;BME280;54027;50.786;7.058;2023-02-16T15:16:09;101734.81;;;11.79;70.76
67109;BME280;54027;50.786;7.058;2023-02-16T15:18:39;101736.56;;;11.74;70.40
67109;BME280;54027;50.786;7.058;2023-02-16T15:21:14;101732.19;;;11.67;70.66
67109;BME280;54027;50.786;7.058;2023-02-16T15:23:46;101749.47;;;11.60;71.48
67109;BME280;54027;50.786;7.058;2023-02-16T15:26:18;101742.53;;;11.55;71.01
67109;BME280;54027;50.786;7.058;2023-02-16T15:28:50;101742.53;;;11.50;70.87
67109;BME280;54027;50.786;7.058;2023-02-16T15:31:16;101740.75;;;11.42;70.92
67109;BME280;54027;50.786;7.058;2023-02-16T15:33:43;101745.03;;;11.35;71.72
67109;BME280;54027;50.786;7.058;2023-02-16T15:36:16;101733.78;;;11.30;71.06
67109;BME280;54027;50.786;7.058;2023-02-16T15:38:54;101739.81;;;11.24;71.86
67109;BME280;54027;50.786;7.058;2023-02-16T15:43:58;101736.31;;;11.18;72.08
67109;BME280;54027;50.786;7.058;2023-02-16T15:46:31;101723.38;;;11.16;71.71
67109;BME280;54027;50.786;7.058;2023-02-16T15:48:57;101727.66;;;11.10;71.87
67109;BME280;54027;50.786;7.058;2023-02-16T15:51:25;101721.63;;;11.11;72.22
67109;BME280;54027;50.786;7.058;2023-02-16T15:53:58;101714.72;;;11.11;71.01
67109;BME280;54027;50.786;7.058;2023-02-16T15:56:26;101688.88;;;11.14;70.11
67109;BME280;54027;50.786;7.058;2023-02-16T15:58:55;101696.66;;;11.20;69.88
67109;BME280;54027;50.786;7.058;2023-02-16T16:01:22;101675.13;;;11.30;69.06
67109;BME280;54027;50.786;7.058;2023-02-16T16:03:48;101670.81;;;11.35;68.34